sensor_id;sensor_type;location;lat;lon;timestamp;P1;durP1;ratioP1;P2;durP2;ratioP2
36415;SDS011;22447;44.530;18.620;2024-03-06T00:01:31;127.50;;;65.93;;
36415;SDS011;22447;44.530;18.620;2024-03-06T00:03:57;155.00;;;83.28;;
36415;SDS011;22447;44.530;18.620;2024-03-06T00:06:23;169.20;;;89.68;;
36415;SDS011;22447;44.530;18.620;2024-03-06T00:08:49;151.90;;;81.95;;
36415;SDS011;22447;44.530;18.620;2024-03-06T00:11:16;164.45;;;88.90;;
36415;SDS011;22447;44.530;18.620;2024-03-06T00:13:42;160.70;;;82.47;;
36415;SDS011;22447;44.530;18.620;2024-03-06T00:16:08;158.77;;;83.50;;
36415;SDS011;22447;44.530;18.620;2024-03-06T00:18:34;151.07;;;79.63;;
36415;SDS011;22447;44.530;18.620;2024-03-06T00:21:00;137.63;;;74.97;;
36415;SDS011;22447;44.530;18.620;2024-03-06T00:23:25;137.50;;;74.97;;
36415;SDS011;22447;44.530;18.620;2024-03-06T00:25:51;138.00;;;75.45;;
36415;SDS011;22447;44.530;18.620;2024-03-06T00:28:17;136.13;;;69.03;;
36415;SDS011;22447;44.530;18.620;2024-03-06T00:30:43;111.97;;;60.97;;
36415;SDS011;22447;44.530;18.620;2024-03-06T00:33:09;112.25;;;58.63;;
36415;SDS011;22447;44.530;18.620;2024-03-06T00:35:34;92.70;;;53.10;;
36415;SDS011;22447;44.530;18.620;2024-03-06T00:38:00;89.40;;;51.78;;
36415;SDS011;22447;44.530;18.620;2024-03-06T00:40:28;97.47;;;56.72;;
36415;SDS011;22447;44.530;18.620;2024-03-06T00:42:57;110.72;;;62.05;;
36415;SDS011;22447;44.530;18.620;2024-03-06T00:45:23;135.00;;;71.43;;
36415;SDS011;22447;44.530;18.620;2024-03-06T00:47:49;123.82;;;66.55;;
36415;SDS011;22447;44.530;18.620;2024-03-06T00:50:15;125.28;;;66.90;;
36415;SDS011;22447;44.530;18.620;2024-03-06T00:52:42;104.38;;;60.35;;
36415;SDS011;22447;44.530;18.620;2024-03-06T00:55:09;122.03;;;66.22;;
36415;SDS011;22447;44.530;18.620;2024-03-06T00:57:35;116.65;;;63.42;;
36415;SDS011;22447;44.530;18.620;2024-03-06T01:00:02;116.35;;;67.07;;
36415;SDS011;22447;44.530;18.620;2024-03-06T01:02:47;108.75;;;61.95;;
36415;SDS011;22447;44.530;18.620;2024-03-06T01:05:13;108.75;;;60.47;;
36415;SDS011;22447;44.530;18.620;2024-03-06T01:07:39;125.90;;;69.10;;
36415;SDS011;22447;44.530;18.620;2024-03-06T01:10:05;128.85;;;68.68;;
36415;SDS011;22447;44.530;18.620;2024-03-06T01:12:35;128.63;;;67.93;;
36415;SDS011;22447;44.530;18.620;2024-03-06T01:15:01;118.38;;;67.43;;
36415;SDS011;22447;44.530;18.620;2024-03-06T01:17:26;131.55;;;71.22;;
36415;SDS011;22447;44.530;18.620;2024-03-06T01:19:52;120.07;;;69.43;;
36415;SDS011;22447;44.530;18.620;2024-03-06T01:22:18;120.22;;;67.93;;
36415;SDS011;22447;44.530;18.620;2024-03-06T01:24:44;113.43;;;63.17;;
36415;SDS011;22447;44.530;18.620;2024-03-06T01:27:10;117.72;;;65.47;;
36415;SDS011;22447;44.530;18.620;2024-03-06T01:29:36;105.85;;;58.67;;
36415;SDS011;22447;44.530;18.620;2024-03-06T01:32:02;129.77;;;65.85;;
36415;SDS011;22447;44.530;18.620;2024-03-06T01:34:27;127.13;;;66.07;;
36415;SDS011;22447;44.530;18.620;2024-03-06T01:36:53;131.43;;;71.60;;
36415;SDS011;22447;44.530;18.620;2024-03-06T01:39:19;140.48;;;73.57;;
36415;SDS011;22447;44.530;18.620;2024-03-06T01:41:48;158.75;;;78.85;;
36415;SDS011;22447;44.530;18.620;2024-03-06T01:44:15;210.73;;;93.05;;
36415;SDS011;22447;44.530;18.620;2024-03-06T01:46:42;225.02;;;101.05;;
36415;SDS011;22447;44.530;18.620;2024-03-06T01:49:12;223.45;;;102.75;;
36415;SDS011;22447;44.530;18.620;2024-03-06T01:51:40;201.68;;;96.15;;
36415;SDS011;22447;44.530;18.620;2024-03-06T01:54:07;204.35;;;98.65;;
36415;SDS011;22447;44.530;18.620;2024-03-06T01:56:35;178.02;;;90.00;;
36415;SDS011;22447;44.530;18.620;2024-03-06T01:59:02;208.52;;;94.63;;
36415;SDS011;22447;44.530;18.620;2024-03-06T02:01:29;215.90;;;98.97;;
36415;SDS011;22447;44.530;18.620;2024-03-06T02:03:57;182.20;;;86.03;;
36415;SDS011;22447;44.530;18.620;2024-03-06T02:06:24;180.73;;;87.47;;
36415;SDS011;22447;44.530;18.620;2024-03-06T02:08:51;157.00;;;80.97;;
36415;SDS011;22447;44.530;18.620;2024-03-06T02:11:17;168.07;;;83.65;;
36415;SDS011;22447;44.530;18.620;2024-03-06T02:13:43;166.90;;;83.38;;
36415;SDS011;22447;44.530;18.620;2024-03-06T02:16:09;154.10;;;79.65;;
36415;SDS011;22447;44.530;18.620;2024-03-06T02:18:35;150.52;;;79.53;;
36415;SDS011;22447;44.530;18.620;2024-03-06T02:21:02;154.10;;;82.55;;
36415;SDS011;22447;44.530;18.620;2024-03-06T02:23:32;163.73;;;83.60;;
36415;SDS011;22447;44.530;18.620;2024-03-06T02:25:58;160.98;;;86.65;;
36415;SDS011;22447;44.530;18.620;2024-03-06T02:28:24;165.82;;;87.60;;
36415;SDS011;22447;44.530;18.620;2024-03-06T02:30:50;163.30;;;86.28;;
36415;SDS011;22447;44.530;18.620;2024-03-06T02:33:16;172.20;;;89.90;;
36415;SDS011;22447;44.530;18.620;2024-03-06T02:35:43;159.07;;;86.82;;
36415;SDS011;22447;44.530;18.620;2024-03-06T02:38:11;170.90;;;86.53;;
36415;SDS011;22447;44.530;18.620;2024-03-06T02:40:37;170.07;;;84.53;;
36415;SDS011;22447;44.530;18.620;2024-03-06T02:43:02;166.13;;;85.13;;
36415;SDS011;22447;44.530;18.620;2024-03-06T02:45:29;169.23;;;88.55;;
36415;SDS011;22447;44.530;18.620;2024-03-06T02:47:55;164.07;;;86.00;;
36415;SDS011;22447;44.530;18.620;2024-03-06T02:50:21;152.25;;;80.40;;
36415;SDS011;22447;44.530;18.620;2024-03-06T02:52:48;159.52;;;82.07;;
36415;SDS011;22447;44.530;18.620;2024-03-06T02:55:14;162.55;;;82.30;;
36415;SDS011;22447;44.530;18.620;2024-03-06T02:57:40;135.00;;;72.28;;
36415;SDS011;22447;44.530;18.620;2024-03-06T03:00:06;126.75;;;69.75;;
36415;SDS011;22447;44.530;18.620;2024-03-06T03:02:38;151.30;;;78.72;;
36415;SDS011;22447;44.530;18.620;2024-03-06T03:05:04;191.68;;;93.18;;
36415;SDS011;22447;44.530;18.620;2024-03-06T03:07:30;151.85;;;79.13;;
36415;SDS011;22447;44.530;18.620;2024-03-06T03:09:57;149.60;;;80.90;;
36415;SDS011;22447;44.530;18.620;2024-03-06T03:12:23;146.25;;;77.43;;
36415;SDS011;22447;44.530;18.620;2024-03-06T03:14:48;149.70;;;79.03;;
36415;SDS011;22447;44.530;18.620;2024-03-06T03:17:15;148.32;;;81.20;;
36415;SDS011;22447;44.530;18.620;2024-03-06T03:19:41;143.07;;;80.68;;
36415;SDS011;22447;44.530;18.620;2024-03-06T03:22:06;147.40;;;80.78;;
36415;SDS011;22447;44.530;18.620;2024-03-06T03:24:34;167.45;;;85.80;;
36415;SDS011;22447;44.530;18.620;2024-03-06T03:27:00;148.68;;;81.93;;
36415;SDS011;22447;44.530;18.620;2024-03-06T03:29:26;157.13;;;81.07;;
36415;SDS011;22447;44.530;18.620;2024-03-06T03:31:52;142.13;;;77.38;;
36415;SDS011;22447;44.530;18.620;2024-03-06T03:34:18;141.10;;;76.10;;
36415;SDS011;22447;44.530;18.620;2024-03-06T03:36:46;138.05;;;75.65;;
36415;SDS011;22447;44.530;18.620;2024-03-06T03:39:13;143.77;;;78.47;;
36415;SDS011;22447;44.530;18.620;2024-03-06T03:41:46;154.43;;;80.28;;
36415;SDS011;22447;44.530;18.620;2024-03-06T03:44:16;151.00;;;82.97;;
36415;SDS011;22447;44.530;18.620;2024-03-06T03:46:44;165.77;;;86.38;;
36415;SDS011;22447;44.530;18.620;2024-03-06T03:49:10;165.30;;;86.05;;
36415;SDS011;22447;44.530;18.620;2024-03-06T03:51:37;153.73;;;79.50;;
36415;SDS011;22447;44.530;18.620;2024-03-06T03:54:04;121.80;;;66.85;;
36415;SDS011;22447;44.530;18.620;2024-03-06T03:56:30;109.70;;;59.70;;
36415;SDS011;22447;44.530;18.620;2024-03-06T03:58:57;112.55;;;60.72;;
36415;SDS011;22447;44.530;18.620;2024-03-06T04:01:26;108.57;;;59.38;;
36415;SDS011;22447;44.530;18.620;2024-03-06T04:03:53;110.80;;;61.92;;
36415;SDS011;22447;44.530;18.620;2024-03-06T04:06:18;117.28;;;65.82;;
36415;SDS011;22447;44.530;18.620;2024-03-06T04:08:44;131.45;;;70.38;;
36415;SDS011;22447;44.530;18.620;2024-03-06T04:11:10;122.65;;;69.45;;
36415;SDS011;22447;44.530;18.620;2024-03-06T04:13:37;153.77;;;79.90;;
36415;SDS011;22447;44.530;18.620;2024-03-06T04:16:03;157.85;;;82.07;;
36415;SDS011;22447;44.530;18.620;2024-03-06T04:18:31;197.23;;;91.43;;
36415;SDS011;22447;44.530;18.620;2024-03-06T04:21:06;198.87;;;92.00;;
36415;SDS011;22447;44.530;18.620;2024-03-06T04:23:32;230.80;;;96.38;;
36415;SDS011;22447;44.530;18.620;2024-03-06T04:25:59;207.35;;;91.72;;
36415;SDS011;22447;44.530;18.620;2024-03-06T04:28:25;202.40;;;94.57;;
36415;SDS011;22447;44.530;18.620;2024-03-06T04:30:51;184.05;;;90.38;;
36415;SDS011;22447;44.530;18.620;2024-03-06T04:33:17;177.77;;;86.82;;
36415;SDS011;22447;44.530;18.620;2024-03-06T04:35:43;215.35;;;94.93;;
36415;SDS011;22447;44.530;18.620;2024-03-06T04:38:08;188.65;;;88.57;;
36415;SDS011;22447;44.530;18.620;2024-03-06T04:40:34;193.43;;;90.95;;
36415;SDS011;22447;44.530;18.620;2024-03-06T04:43:00;190.95;;;87.53;;
36415;SDS011;22447;44.530;18.620;2024-03-06T04:45:26;180.80;;;83.60;;
36415;SDS011;22447;44.530;18.620;2024-03-06T04:47:55;175.02;;;82.72;;
36415;SDS011;22447;44.530;18.620;2024-03-06T04:50:21;173.50;;;83.20;;
36415;SDS011;22447;44.530;18.620;2024-03-06T04:52:47;170.00;;;81.38;;
36415;SDS011;22447;44.530;18.620;2024-03-06T04:55:13;174.63;;;82.07;;
36415;SDS011;22447;44.530;18.620;2024-03-06T04:57:43;166.18;;;80.80;;
36415;SDS011;22447;44.530;18.620;2024-03-06T05:00:09;181.73;;;83.32;;
36415;SDS011;22447;44.530;18.620;2024-03-06T05:02:36;166.05;;;81.60;;
36415;SDS011;22447;44.530;18.620;2024-03-06T05:05:03;167.90;;;82.72;;
36415;SDS011;22447;44.530;18.620;2024-03-06T05:07:29;222.35;;;100.95;;
36415;SDS011;22447;44.530;18.620;2024-03-06T05:09:56;260.70;;;110.70;;
36415;SDS011;22447;44.530;18.620;2024-03-06T05:12:26;255.70;;;109.47;;
36415;SDS011;22447;44.530;18.620;2024-03-06T05:14:52;209.90;;;90.40;;
36415;SDS011;22447;44.530;18.620;2024-03-06T05:17:19;186.00;;;85.93;;
36415;SDS011;22447;44.530;18.620;2024-03-06T05:19:46;172.00;;;80.45;;
36415;SDS011;22447;44.530;18.620;2024-03-06T05:22:14;157.23;;;76.40;;
36415;SDS011;22447;44.530;18.620;2024-03-06T05:24:41;166.52;;;74.00;;
36415;SDS011;22447;44.530;18.620;2024-03-06T05:27:07;147.65;;;68.90;;
36415;SDS011;22447;44.530;18.620;2024-03-06T05:29:35;149.20;;;71.85;;
36415;SDS011;22447;44.530;18.620;2024-03-06T05:32:02;157.80;;;74.13;;
36415;SDS011;22447;44.530;18.620;2024-03-06T05:34:28;159.25;;;78.18;;
36415;SDS011;22447;44.530;18.620;2024-03-06T05:36:57;222.38;;;100.90;;
36415;SDS011;22447;44.530;18.620;2024-03-06T05:39:23;251.68;;;108.57;;
36415;SDS011;22447;44.530;18.620;2024-03-06T05:41:49;179.38;;;83.85;;
36415;SDS011;22447;44.530;18.620;2024-03-06T05:44:15;263.30;;;113.72;;
36415;SDS011;22447;44.530;18.620;2024-03-06T05:46:41;304.85;;;121.85;;
36415;SDS011;22447;44.530;18.620;2024-03-06T05:49:07;242.85;;;106.53;;
36415;SDS011;22447;44.530;18.620;2024-03-06T05:51:33;204.98;;;90.68;;
36415;SDS011;22447;44.530;18.620;2024-03-06T05:53:58;201.18;;;94.38;;
36415;SDS011;22447;44.530;18.620;2024-03-06T05:56:24;162.88;;;76.78;;
36415;SDS011;22447;44.530;18.620;2024-03-06T05:58:50;171.35;;;79.07;;
36415;SDS011;22447;44.530;18.620;2024-03-06T06:01:16;160.90;;;73.15;;
36415;SDS011;22447;44.530;18.620;2024-03-06T06:03:48;141.80;;;63.15;;
36415;SDS011;22447;44.530;18.620;2024-03-06T06:06:15;126.97;;;63.85;;
36415;SDS011;22447;44.530;18.620;2024-03-06T06:08:41;126.82;;;60.78;;
36415;SDS011;22447;44.530;18.620;2024-03-06T06:11:09;127.40;;;59.58;;
36415;SDS011;22447;44.530;18.620;2024-03-06T06:13:35;123.72;;;60.15;;
36415;SDS011;22447;44.530;18.620;2024-03-06T06:16:01;130.65;;;62.42;;
36415;SDS011;22447;44.530;18.620;2024-03-06T06:18:28;162.10;;;69.75;;
36415;SDS011;22447;44.530;18.620;2024-03-06T06:20:53;147.15;;;69.13;;
36415;SDS011;22447;44.530;18.620;2024-03-06T06:23:20;221.32;;;107.43;;
36415;SDS011;22447;44.530;18.620;2024-03-06T06:25:45;199.27;;;95.50;;
36415;SDS011;22447;44.530;18.620;2024-03-06T06:28:11;204.38;;;97.28;;
36415;SDS011;22447;44.530;18.620;2024-03-06T06:30:37;192.25;;;86.40;;
36415;SDS011;22447;44.530;18.620;2024-03-06T06:33:06;179.80;;;82.45;;
36415;SDS011;22447;44.530;18.620;2024-03-06T06:35:33;176.52;;;80.70;;
36415;SDS011;22447;44.530;18.620;2024-03-06T06:38:02;181.40;;;82.25;;
36415;SDS011;22447;44.530;18.620;2024-03-06T06:40:30;163.60;;;78.10;;
36415;SDS011;22447;44.530;18.620;2024-03-06T06:42:56;155.40;;;77.00;;
36415;SDS011;22447;44.530;18.620;2024-03-06T06:45:22;157.35;;;78.20;;
36415;SDS011;22447;44.530;18.620;2024-03-06T06:47:48;138.40;;;72.05;;
36415;SDS011;22447;44.530;18.620;2024-03-06T06:50:15;137.93;;;75.10;;
36415;SDS011;22447;44.530;18.620;2024-03-06T06:52:41;131.07;;;69.03;;
36415;SDS011;22447;44.530;18.620;2024-03-06T06:55:07;130.18;;;68.57;;
36415;SDS011;22447;44.530;18.620;2024-03-06T06:57:36;113.75;;;57.70;;
36415;SDS011;22447;44.530;18.620;2024-03-06T07:00:03;101.10;;;57.05;;
36415;SDS011;22447;44.530;18.620;2024-03-06T07:02:38;127.38;;;60.30;;
36415;SDS011;22447;44.530;18.620;2024-03-06T07:05:06;109.35;;;61.70;;
36415;SDS011;22447;44.530;18.620;2024-03-06T07:07:33;119.65;;;67.15;;
36415;SDS011;22447;44.530;18.620;2024-03-06T07:10:00;110.22;;;63.75;;
36415;SDS011;22447;44.530;18.620;2024-03-06T07:12:26;122.15;;;65.88;;
36415;SDS011;22447;44.530;18.620;2024-03-06T07:14:52;135.43;;;74.18;;
36415;SDS011;22447;44.530;18.620;2024-03-06T07:17:18;114.85;;;65.38;;
36415;SDS011;22447;44.530;18.620;2024-03-06T07:19:44;125.82;;;69.32;;
36415;SDS011;22447;44.530;18.620;2024-03-06T07:22:10;123.00;;;66.70;;
36415;SDS011;22447;44.530;18.620;2024-03-06T07:24:36;120.22;;;63.60;;
36415;SDS011;22447;44.530;18.620;2024-03-06T07:27:02;119.63;;;63.95;;
36415;SDS011;22447;44.530;18.620;2024-03-06T07:29:28;119.15;;;62.17;;
36415;SDS011;22447;44.530;18.620;2024-03-06T07:31:55;110.82;;;60.83;;
36415;SDS011;22447;44.530;18.620;2024-03-06T07:34:20;115.38;;;59.03;;
36415;SDS011;22447;44.530;18.620;2024-03-06T07:36:47;111.68;;;59.85;;
36415;SDS011;22447;44.530;18.620;2024-03-06T07:39:16;130.80;;;64.55;;
36415;SDS011;22447;44.530;18.620;2024-03-06T07:41:42;110.18;;;59.83;;
36415;SDS011;22447;44.530;18.620;2024-03-06T07:44:08;109.45;;;59.28;;
36415;SDS011;22447;44.530;18.620;2024-03-06T07:46:37;102.03;;;58.35;;
36415;SDS011;22447;44.530;18.620;2024-03-06T07:49:03;102.80;;;54.80;;
36415;SDS011;22447;44.530;18.620;2024-03-06T07:51:30;109.75;;;56.67;;
36415;SDS011;22447;44.530;18.620;2024-03-06T07:53:56;108.75;;;58.05;;
36415;SDS011;22447;44.530;18.620;2024-03-06T07:56:23;112.50;;;57.55;;
36415;SDS011;22447;44.530;18.620;2024-03-06T07:58:52;100.60;;;56.83;;
36415;SDS011;22447;44.530;18.620;2024-03-06T08:01:19;94.43;;;58.40;;
36415;SDS011;22447;44.530;18.620;2024-03-06T08:03:46;116.72;;;60.95;;
36415;SDS011;22447;44.530;18.620;2024-03-06T08:06:12;111.13;;;59.92;;
36415;SDS011;22447;44.530;18.620;2024-03-06T08:08:41;101.88;;;57.53;;
36415;SDS011;22447;44.530;18.620;2024-03-06T08:11:09;106.65;;;60.47;;
36415;SDS011;22447;44.530;18.620;2024-03-06T08:13:36;102.13;;;59.83;;
36415;SDS011;22447;44.530;18.620;2024-03-06T08:16:03;103.28;;;60.58;;
36415;SDS011;22447;44.530;18.620;2024-03-06T08:18:33;117.73;;;62.37;;
36415;SDS011;22447;44.530;18.620;2024-03-06T08:21:00;116.57;;;59.03;;
36415;SDS011;22447;44.530;18.620;2024-03-06T08:23:26;93.57;;;57.00;;
36415;SDS011;22447;44.530;18.620;2024-03-06T08:25:52;109.22;;;59.63;;
36415;SDS011;22447;44.530;18.620;2024-03-06T08:28:18;114.20;;;60.85;;
36415;SDS011;22447;44.530;18.620;2024-03-06T08:30:44;107.28;;;59.47;;
36415;SDS011;22447;44.530;18.620;2024-03-06T08:33:10;93.18;;;53.72;;
36415;SDS011;22447;44.530;18.620;2024-03-06T08:35:36;100.95;;;55.63;;
36415;SDS011;22447;44.530;18.620;2024-03-06T08:38:02;103.88;;;51.28;;
36415;SDS011;22447;44.530;18.620;2024-03-06T08:40:29;76.45;;;48.22;;
36415;SDS011;22447;44.530;18.620;2024-03-06T08:42:55;80.90;;;47.78;;
36415;SDS011;22447;44.530;18.620;2024-03-06T08:45:21;69.15;;;44.55;;
36415;SDS011;22447;44.530;18.620;2024-03-06T08:47:48;79.28;;;44.63;;
36415;SDS011;22447;44.530;18.620;2024-03-06T08:50:15;73.00;;;45.45;;
36415;SDS011;22447;44.530;18.620;2024-03-06T08:52:41;77.70;;;45.30;;
36415;SDS011;22447;44.530;18.620;2024-03-06T08:55:08;71.13;;;44.10;;
36415;SDS011;22447;44.530;18.620;2024-03-06T08:57:34;72.65;;;44.03;;
36415;SDS011;22447;44.530;18.620;2024-03-06T09:00:00;59.92;;;38.72;;
36415;SDS011;22447;44.530;18.620;2024-03-06T09:02:27;77.80;;;42.40;;
36415;SDS011;22447;44.530;18.620;2024-03-06T09:04:53;65.38;;;39.25;;
36415;SDS011;22447;44.530;18.620;2024-03-06T09:07:19;61.00;;;37.90;;
36415;SDS011;22447;44.530;18.620;2024-03-06T09:09:49;55.10;;;34.55;;
36415;SDS011;22447;44.530;18.620;2024-03-06T09:12:16;56.38;;;36.25;;
36415;SDS011;22447;44.530;18.620;2024-03-06T09:14:43;47.97;;;31.70;;
36415;SDS011;22447;44.530;18.620;2024-03-06T09:17:10;50.90;;;29.42;;
36415;SDS011;22447;44.530;18.620;2024-03-06T09:19:38;44.67;;;27.35;;
36415;SDS011;22447;44.530;18.620;2024-03-06T09:22:04;70.32;;;33.05;;
36415;SDS011;22447;44.530;18.620;2024-03-06T09:24:30;44.13;;;29.75;;
36415;SDS011;22447;44.530;18.620;2024-03-06T09:26:55;51.92;;;29.15;;
36415;SDS011;22447;44.530;18.620;2024-03-06T09:29:23;49.17;;;31.60;;
36415;SDS011;22447;44.530;18.620;2024-03-06T09:31:49;50.40;;;31.42;;
36415;SDS011;22447;44.530;18.620;2024-03-06T09:34:14;66.32;;;33.38;;
36415;SDS011;22447;44.530;18.620;2024-03-06T09:36:41;55.80;;;32.80;;
36415;SDS011;22447;44.530;18.620;2024-03-06T09:39:14;53.38;;;31.67;;
36415;SDS011;22447;44.530;18.620;2024-03-06T09:41:48;59.33;;;30.70;;
36415;SDS011;22447;44.530;18.620;2024-03-06T09:44:17;51.55;;;30.73;;
36415;SDS011;22447;44.530;18.620;2024-03-06T09:46:44;52.47;;;30.63;;
36415;SDS011;22447;44.530;18.620;2024-03-06T09:49:11;47.13;;;29.85;;
36415;SDS011;22447;44.530;18.620;2024-03-06T09:51:41;56.65;;;31.67;;
36415;SDS011;22447;44.530;18.620;2024-03-06T09:54:14;48.70;;;31.35;;
36415;SDS011;22447;44.530;18.620;2024-03-06T09:56:48;58.75;;;29.88;;
36415;SDS011;22447;44.530;18.620;2024-03-06T09:59:14;51.08;;;29.75;;
36415;SDS011;22447;44.530;18.620;2024-03-06T10:01:50;45.38;;;27.65;;
36415;SDS011;22447;44.530;18.620;2024-03-06T10:04:23;41.22;;;26.08;;
36415;SDS011;22447;44.530;18.620;2024-03-06T10:06:50;37.83;;;25.33;;
36415;SDS011;22447;44.530;18.620;2024-03-06T10:09:20;37.42;;;25.20;;
36415;SDS011;22447;44.530;18.620;2024-03-06T10:11:46;42.72;;;24.98;;
36415;SDS011;22447;44.530;18.620;2024-03-06T10:14:13;41.92;;;24.90;;
36415;SDS011;22447;44.530;18.620;2024-03-06T10:16:52;38.25;;;25.02;;
36415;SDS011;22447;44.530;18.620;2024-03-06T10:19:18;44.20;;;24.92;;
36415;SDS011;22447;44.530;18.620;2024-03-06T10:21:48;42.08;;;24.88;;
36415;SDS011;22447;44.530;18.620;2024-03-06T10:24:27;43.13;;;25.33;;
36415;SDS011;22447;44.530;18.620;2024-03-06T10:26:57;46.38;;;28.88;;
36415;SDS011;22447;44.530;18.620;2024-03-06T10:29:24;46.47;;;28.85;;
36415;SDS011;22447;44.530;18.620;2024-03-06T10:31:51;43.92;;;28.00;;
36415;SDS011;22447;44.530;18.620;2024-03-06T10:34:25;39.80;;;26.27;;
36415;SDS011;22447;44.530;18.620;2024-03-06T10:39:21;42.58;;;24.65;;
36415;SDS011;22447;44.530;18.620;2024-03-06T10:41:51;40.42;;;25.40;;
36415;SDS011;22447;44.530;18.620;2024-03-06T10:44:20;41.63;;;26.88;;
36415;SDS011;22447;44.530;18.620;2024-03-06T10:46:48;44.88;;;27.75;;
36415;SDS011;22447;44.530;18.620;2024-03-06T10:49:26;49.72;;;27.73;;
36415;SDS011;22447;44.530;18.620;2024-03-06T10:52:01;50.40;;;26.80;;
36415;SDS011;22447;44.530;18.620;2024-03-06T10:54:36;39.22;;;23.45;;
36415;SDS011;22447;44.530;18.620;2024-03-06T10:59:33;54.17;;;24.63;;
36415;SDS011;22447;44.530;18.620;2024-03-06T11:02:00;40.15;;;16.92;;
36415;SDS011;22447;44.530;18.620;2024-03-06T11:04:27;39.78;;;18.38;;
36415;SDS011;22447;44.530;18.620;2024-03-06T11:06:55;30.35;;;16.55;;
36415;SDS011;22447;44.530;18.620;2024-03-06T11:09:21;38.08;;;19.08;;
36415;SDS011;22447;44.530;18.620;2024-03-06T11:11:51;29.58;;;18.83;;
36415;SDS011;22447;44.530;18.620;2024-03-06T11:14:18;41.65;;;20.95;;
36415;SDS011;22447;44.530;18.620;2024-03-06T11:17:01;33.03;;;18.00;;
36415;SDS011;22447;44.530;18.620;2024-03-06T11:21:54;34.08;;;19.35;;
36415;SDS011;22447;44.530;18.620;2024-03-06T11:24:21;29.27;;;18.10;;
36415;SDS011;22447;44.530;18.620;2024-03-06T11:26:48;43.05;;;21.13;;
36415;SDS011;22447;44.530;18.620;2024-03-06T11:29:27;35.70;;;20.52;;
36415;SDS011;22447;44.530;18.620;2024-03-06T11:32:04;34.05;;;18.88;;
36415;SDS011;22447;44.530;18.620;2024-03-06T11:34:33;31.02;;;19.02;;
36415;SDS011;22447;44.530;18.620;2024-03-06T11:37:03;35.42;;;19.85;;
36415;SDS011;22447;44.530;18.620;2024-03-06T11:39:38;34.38;;;17.95;;
36415;SDS011;22447;44.530;18.620;2024-03-06T11:42:06;34.22;;;18.88;;
36415;SDS011;22447;44.530;18.620;2024-03-06T11:44:35;25.52;;;16.75;;
36415;SDS011;22447;44.530;18.620;2024-03-06T11:47:03;55.17;;;18.33;;
36415;SDS011;22447;44.530;18.620;2024-03-06T11:49:34;34.78;;;17.67;;
36415;SDS011;22447;44.530;18.620;2024-03-06T11:52:05;35.53;;;19.75;;
36415;SDS011;22447;44.530;18.620;2024-03-06T11:54:36;43.60;;;18.65;;
36415;SDS011;22447;44.530;18.620;2024-03-06T11:57:03;36.90;;;19.90;;
36415;SDS011;22447;44.530;18.620;2024-03-06T11:59:36;22.48;;;12.25;;
36415;SDS011;22447;44.530;18.620;2024-03-06T12:02:05;33.90;;;18.95;;
36415;SDS011;22447;44.530;18.620;2024-03-06T12:04:32;39.90;;;17.73;;
36415;SDS011;22447;44.530;18.620;2024-03-06T12:07:01;40.92;;;17.08;;
36415;SDS011;22447;44.530;18.620;2024-03-06T12:09:34;27.08;;;14.95;;
36415;SDS011;22447;44.530;18.620;2024-03-06T12:12:01;39.15;;;18.05;;
36415;SDS011;22447;44.530;18.620;2024-03-06T12:14:28;34.70;;;15.52;;
36415;SDS011;22447;44.530;18.620;2024-03-06T12:16:58;36.38;;;18.95;;
36415;SDS011;22447;44.530;18.620;2024-03-06T12:19:25;32.60;;;18.05;;
36415;SDS011;22447;44.530;18.620;2024-03-06T12:21:53;34.53;;;15.50;;
36415;SDS011;22447;44.530;18.620;2024-03-06T12:24:19;38.33;;;16.40;;
36415;SDS011;22447;44.530;18.620;2024-03-06T12:26:45;32.63;;;17.35;;
36415;SDS011;22447;44.530;18.620;2024-03-06T12:29:16;32.75;;;17.85;;
36415;SDS011;22447;44.530;18.620;2024-03-06T12:31:46;25.13;;;15.20;;
36415;SDS011;22447;44.530;18.620;2024-03-06T12:34:15;25.00;;;15.57;;
36415;SDS011;22447;44.530;18.620;2024-03-06T12:36:42;27.75;;;14.75;;
36415;SDS011;22447;44.530;18.620;2024-03-06T12:39:08;37.20;;;15.95;;
36415;SDS011;22447;44.530;18.620;2024-03-06T12:41:41;26.53;;;13.93;;
36415;SDS011;22447;44.530;18.620;2024-03-06T12:44:07;24.17;;;14.30;;
36415;SDS011;22447;44.530;18.620;2024-03-06T12:46:33;26.45;;;14.77;;
36415;SDS011;22447;44.530;18.620;2024-03-06T12:48:59;33.28;;;16.00;;
36415;SDS011;22447;44.530;18.620;2024-03-06T12:51:25;36.28;;;16.42;;
36415;SDS011;22447;44.530;18.620;2024-03-06T12:53:51;35.05;;;18.27;;
36415;SDS011;22447;44.530;18.620;2024-03-06T12:56:18;32.85;;;16.55;;
36415;SDS011;22447;44.530;18.620;2024-03-06T12:58:44;31.15;;;15.88;;
36415;SDS011;22447;44.530;18.620;2024-03-06T13:01:10;36.25;;;16.75;;
36415;SDS011;22447;44.530;18.620;2024-03-06T13:03:36;31.77;;;15.88;;
36415;SDS011;22447;44.530;18.620;2024-03-06T13:06:03;55.67;;;20.95;;
36415;SDS011;22447;44.530;18.620;2024-03-06T13:08:33;49.90;;;20.98;;
36415;SDS011;22447;44.530;18.620;2024-03-06T13:10:58;38.30;;;20.40;;
36415;SDS011;22447;44.530;18.620;2024-03-06T13:13:25;41.90;;;20.42;;
36415;SDS011;22447;44.530;18.620;2024-03-06T13:15:51;32.25;;;20.13;;
36415;SDS011;22447;44.530;18.620;2024-03-06T13:18:17;33.35;;;19.38;;
36415;SDS011;22447;44.530;18.620;2024-03-06T13:20:44;34.28;;;17.38;;
36415;SDS011;22447;44.530;18.620;2024-03-06T13:23:10;32.38;;;18.92;;
36415;SDS011;22447;44.530;18.620;2024-03-06T13:25:36;24.92;;;17.95;;
36415;SDS011;22447;44.530;18.620;2024-03-06T13:28:02;28.85;;;18.58;;
36415;SDS011;22447;44.530;18.620;2024-03-06T13:30:28;33.13;;;18.05;;
36415;SDS011;22447;44.530;18.620;2024-03-06T13:32:54;36.80;;;20.27;;
36415;SDS011;22447;44.530;18.620;2024-03-06T13:35:20;77.78;;;27.20;;
36415;SDS011;22447;44.530;18.620;2024-03-06T13:37:47;43.92;;;19.38;;
36415;SDS011;22447;44.530;18.620;2024-03-06T13:40:14;31.42;;;16.83;;
36415;SDS011;22447;44.530;18.620;2024-03-06T13:42:41;38.28;;;17.48;;
36415;SDS011;22447;44.530;18.620;2024-03-06T13:45:08;56.38;;;23.05;;
36415;SDS011;22447;44.530;18.620;2024-03-06T13:47:43;49.08;;;19.20;;
36415;SDS011;22447;44.530;18.620;2024-03-06T13:50:13;44.17;;;18.50;;
36415;SDS011;22447;44.530;18.620;2024-03-06T13:52:40;39.55;;;18.65;;
36415;SDS011;22447;44.530;18.620;2024-03-06T13:55:07;43.05;;;18.48;;
36415;SDS011;22447;44.530;18.620;2024-03-06T13:57:33;42.45;;;16.67;;
36415;SDS011;22447;44.530;18.620;2024-03-06T14:00:01;40.65;;;16.35;;
36415;SDS011;22447;44.530;18.620;2024-03-06T14:02:36;30.98;;;15.93;;
36415;SDS011;22447;44.530;18.620;2024-03-06T14:05:02;32.42;;;16.77;;
36415;SDS011;22447;44.530;18.620;2024-03-06T14:07:28;30.55;;;15.70;;
36415;SDS011;22447;44.530;18.620;2024-03-06T14:09:54;43.40;;;15.50;;